createdAt,value
2023-03-19T00:00:32.063Z,3.1111111111111427
2023-03-19T00:01:32.235Z,3.000000000000057
2023-03-19T00:02:32.265Z,3.000000000000057
2023-03-19T00:03:32.320Z,3.000000000000057
2023-03-19T00:04:32.004Z,3.000000000000057
2023-03-19T00:05:32.630Z,3.000000000000057
2023-03-19T00:06:32.273Z,3.000000000000057
2023-03-19T00:07:32.257Z,3.000000000000057
2023-03-19T00:08:31.998Z,3.000000000000057
2023-03-19T00:09:32.250Z,3.000000000000057
2023-03-19T00:10:32.258Z,3.000000000000057
2023-03-19T00:11:32.276Z,2.888888888888914
2023-03-19T00:12:32.022Z,3.000000000000057
2023-03-19T00:13:32.223Z,3.000000000000057
2023-03-19T00:14:32.301Z,3.000000000000057
2023-03-19T00:15:32.629Z,3.000000000000057
2023-03-19T00:16:32.021Z,3.000000000000057
2023-03-19T00:17:32.229Z,3.000000000000057
2023-03-19T00:18:32.248Z,3.000000000000057
2023-03-19T00:19:32.263Z,3.000000000000057
2023-03-19T00:20:32.007Z,3.000000000000057
2023-03-19T00:21:32.259Z,3.000000000000057
2023-03-19T00:22:32.266Z,3.000000000000057
2023-03-19T00:23:32.268Z,3.000000000000057
2023-03-19T00:24:31.980Z,3.000000000000057
2023-03-19T00:25:32.623Z,3.000000000000057
2023-03-19T00:26:32.293Z,3.000000000000057
2023-03-19T00:27:32.349Z,3.000000000000057
2023-03-19T00:28:31.963Z,3.000000000000057
2023-03-19T00:29:32.246Z,3.000000000000057
2023-03-19T00:30:32.354Z,3.000000000000057
2023-03-19T00:31:32.244Z,3.000000000000057
2023-03-19T00:32:31.982Z,3.000000000000057
2023-03-19T00:33:32.294Z,3.000000000000057
2023-03-19T00:34:32.245Z,3.000000000000057
2023-03-19T00:35:32.521Z,3.000000000000057
2023-03-19T00:36:32.017Z,3.000000000000057
2023-03-19T00:37:32.279Z,3.000000000000057
2023-03-19T00:38:32.233Z,3.1111111111111427
2023-03-19T00:39:32.606Z,3.1111111111111427
2023-03-19T00:40:31.964Z,3.1111111111111427
2023-03-19T00:41:32.304Z,3.1111111111111427
2023-03-19T00:42:32.228Z,3.1111111111111427
2023-03-19T00:43:32.258Z,3.1111111111111427
2023-03-19T00:44:31.956Z,3.1111111111111427
2023-03-19T00:45:32.672Z,3.1111111111111427
2023-03-19T00:46:32.292Z,3.2222222222222854
2023-03-19T00:47:32.290Z,3.2222222222222854
2023-03-19T00:48:32.022Z,3.2222222222222854
2023-03-19T00:49:32.256Z,3.2222222222222854
2023-03-19T00:50:32.319Z,3.2222222222222854
2023-03-19T00:51:32.242Z,3.2222222222222854
2023-03-19T00:52:31.960Z,3.2222222222222854
2023-03-19T00:53:32.259Z,3.2222222222222854
2023-03-19T00:54:32.454Z,3.2222222222222854
2023-03-19T00:55:32.502Z,3.2222222222222854
2023-03-19T00:56:31.951Z,3.2222222222222854
2023-03-19T00:57:32.229Z,3.2222222222222854
2023-03-19T00:58:32.263Z,3.2222222222222854
2023-03-19T00:59:32.221Z,3.2222222222222854
2023-03-19T01:00:32.000Z,3.2222222222222854
2023-03-19T01:01:32.478Z,3.2222222222222854
2023-03-19T01:02:32.285Z,3.2222222222222854
2023-03-19T01:03:32.260Z,3.2222222222222854
2023-03-19T01:04:31.979Z,3.2222222222222854
2023-03-19T01:05:32.624Z,3.2222222222222854
2023-03-19T01:06:32.322Z,3.2222222222222854
2023-03-19T01:07:32.272Z,3.2222222222222854
2023-03-19T01:08:31.945Z,3.2222222222222854
2023-03-19T01:09:32.233Z,3.2222222222222854
2023-03-19T01:10:32.273Z,3.2222222222222854
2023-03-19T01:11:32.297Z,3.2222222222222854
2023-03-19T01:12:31.950Z,3.2222222222222854
2023-03-19T01:13:32.242Z,3.2222222222222854
2023-03-19T01:14:32.254Z,3.2222222222222854
2023-03-19T01:15:32.582Z,3.2222222222222854
2023-03-19T01:16:31.941Z,3.2222222222222854
2023-03-19T01:17:32.229Z,3.2222222222222854
2023-03-19T01:18:32.261Z,3.2222222222222854
2023-03-19T01:19:32.224Z,3.2222222222222854
2023-03-19T01:20:32.292Z,3.2222222222222854
2023-03-19T01:21:32.253Z,3.2222222222222854
2023-03-19T01:22:33.524Z,3.2222222222222854
2023-03-19T01:23:32.234Z,3.2222222222222854
2023-03-19T01:24:31.946Z,3.2222222222222854
2023-03-19T01:25:32.270Z,3.2222222222222854
2023-03-19T01:26:32.262Z,3.2222222222222854
2023-03-19T01:27:32.253Z,3.2222222222222854
2023-03-19T01:28:32.071Z,3.1111111111111427
2023-03-19T01:29:32.231Z,3.1111111111111427
2023-03-19T01:30:32.584Z,3.1111111111111427
2023-03-19T01:31:32.300Z,3.1111111111111427
2023-03-19T01:32:31.947Z,3.1111111111111427
2023-03-19T01:33:32.239Z,3.1111111111111427
2023-03-19T01:34:32.281Z,3.1111111111111427
2023-03-19T01:35:32.266Z,3.1111111111111427
2023-03-19T01:36:31.897Z,3.000000000000057
2023-03-19T01:37:32.245Z,3.000000000000057
2023-03-19T01:38:32.294Z,3.000000000000057
2023-03-19T01:39:32.230Z,3.000000000000057
2023-03-19T01:40:32.434Z,3.000000000000057
2023-03-19T01:41:32.434Z,3.000000000000057
2023-03-19T01:42:32.421Z,3.000000000000057
2023-03-19T01:43:32.377Z,3.000000000000057
2023-03-19T01:44:32.041Z,3.000000000000057
2023-03-19T01:45:32.336Z,3.000000000000057
2023-03-19T01:46:32.472Z,3.000000000000057
2023-03-19T01:47:32.354Z,3.000000000000057
2023-03-19T01:48:32.091Z,3.000000000000057
2023-03-19T01:49:32.401Z,3.000000000000057
2023-03-19T01:50:32.695Z,3.000000000000057
2023-03-19T01:51:32.351Z,3.000000000000057
2023-03-19T01:52:31.974Z,3.000000000000057
2023-03-19T01:53:32.357Z,3.000000000000057
2023-03-19T01:54:32.316Z,3.000000000000057
2023-03-19T01:55:32.346Z,3.000000000000057
2023-03-19T01:56:31.924Z,3.000000000000057
2023-03-19T01:57:32.278Z,3.000000000000057
2023-03-19T01:58:32.311Z,3.000000000000057
2023-03-19T01:59:32.220Z,3.000000000000057
2023-03-19T02:00:32.109Z,3.000000000000057
2023-03-19T02:01:32.289Z,3.000000000000057
2023-03-19T02:02:32.251Z,3.000000000000057
2023-03-19T02:03:32.220Z,3.000000000000057
2023-03-19T02:04:31.954Z,3.000000000000057
2023-03-19T02:05:32.261Z,3.000000000000057
2023-03-19T02:06:32.248Z,3.000000000000057
2023-03-19T02:07:32.230Z,3.000000000000057
2023-03-19T02:08:31.859Z,3.000000000000057
2023-03-19T02:09:32.287Z,3.000000000000057
2023-03-19T02:10:32.598Z,3.000000000000057
2023-03-19T02:11:32.229Z,3.000000000000057
2023-03-19T02:12:31.877Z,3.000000000000057
2023-03-19T02:13:32.255Z,3.000000000000057
2023-03-19T02:14:32.233Z,3.000000000000057
2023-03-19T02:15:32.203Z,3.000000000000057
2023-03-19T02:16:31.991Z,3.1111111111111427
2023-03-19T02:17:32.216Z,3.1111111111111427
2023-03-19T02:18:32.250Z,3.1111111111111427
2023-03-19T02:19:32.213Z,3.1111111111111427
2023-03-19T02:20:32.114Z,3.1111111111111427
2023-03-19T02:21:32.226Z,3.1111111111111427
2023-03-19T02:22:32.259Z,3.1111111111111427
2023-03-19T02:23:32.221Z,3.1111111111111427
2023-03-19T02:24:31.871Z,3.1111111111111427
2023-03-19T02:25:32.237Z,3.1111111111111427
2023-03-19T02:26:32.228Z,3.1111111111111427
2023-03-19T02:27:32.219Z,3.1111111111111427
2023-03-19T02:28:31.877Z,3.2222222222222854
2023-03-19T02:29:32.226Z,3.2222222222222854
2023-03-19T02:30:32.482Z,3.2222222222222854
2023-03-19T02:31:32.441Z,3.2222222222222854
2023-03-19T02:32:31.934Z,3.1111111111111427
2023-03-19T02:33:32.197Z,3.1111111111111427
2023-03-19T02:34:32.242Z,3.1111111111111427
2023-03-19T02:35:32.250Z,3.1111111111111427
2023-03-19T02:36:31.843Z,3.2222222222222854
2023-03-19T02:37:33.761Z,3.2222222222222854
2023-03-19T02:38:32.216Z,3.2222222222222854
2023-03-19T02:39:32.235Z,3.1111111111111427
2023-03-19T02:40:32.097Z,3.1111111111111427
2023-03-19T02:41:32.217Z,3.1111111111111427
2023-03-19T02:42:32.314Z,3.1111111111111427
2023-03-19T02:43:32.230Z,3.1111111111111427
2023-03-19T02:44:31.886Z,3.1111111111111427
2023-03-19T02:45:32.237Z,3.1111111111111427
2023-03-19T02:46:32.286Z,3.1111111111111427
2023-03-19T02:47:32.192Z,3.1111111111111427
2023-03-19T02:48:31.928Z,3.1111111111111427
2023-03-19T02:49:32.177Z,3.1111111111111427
2023-03-19T02:50:32.525Z,3.1111111111111427
2023-03-19T02:51:32.256Z,3.1111111111111427
2023-03-19T02:52:31.841Z,3.1111111111111427
2023-03-19T02:53:32.244Z,3.1111111111111427
2023-03-19T02:54:32.213Z,3.1111111111111427
2023-03-19T02:55:32.255Z,3.1111111111111427
2023-03-19T02:56:31.780Z,3.2222222222222854
2023-03-19T02:57:32.247Z,3.1111111111111427
2023-03-19T02:58:32.226Z,3.1111111111111427
2023-03-19T02:59:32.231Z,3.1111111111111427
2023-03-19T03:00:32.121Z,3.1111111111111427
2023-03-19T03:01:32.233Z,3.1111111111111427
2023-03-19T03:02:32.264Z,3.1111111111111427
2023-03-19T03:03:32.261Z,3.1111111111111427
2023-03-19T03:04:31.850Z,3.1111111111111427
2023-03-19T03:05:32.232Z,3.1111111111111427
2023-03-19T03:06:32.234Z,3.2222222222222854
2023-03-19T03:07:32.259Z,3.2222222222222854
2023-03-19T03:08:31.833Z,3.2222222222222854
2023-03-19T03:09:32.238Z,3.2222222222222854
2023-03-19T03:10:32.407Z,3.2222222222222854
2023-03-19T03:11:32.227Z,3.2222222222222854
2023-03-19T03:12:31.806Z,3.2222222222222854
2023-03-19T03:13:32.289Z,3.2222222222222854
2023-03-19T03:14:32.326Z,3.2222222222222854
2023-03-19T03:15:32.377Z,3.2222222222222854
2023-03-19T03:16:31.896Z,3.2222222222222854
2023-03-19T03:17:32.299Z,3.2222222222222854
2023-03-19T03:18:32.284Z,3.2222222222222854
2023-03-19T03:19:32.258Z,3.2222222222222854
2023-03-19T03:20:32.026Z,3.2222222222222854
2023-03-19T03:21:35.286Z,3.2222222222222854
2023-03-19T03:22:32.230Z,3.2222222222222854
2023-03-19T03:23:32.251Z,3.2222222222222854
2023-03-19T03:24:31.830Z,3.2222222222222854
2023-03-19T03:25:32.245Z,3.2222222222222854
2023-03-19T03:26:32.312Z,3.2222222222222854
2023-03-19T03:27:32.310Z,3.2222222222222854
2023-03-19T03:28:31.909Z,3.2222222222222854
2023-03-19T03:29:32.258Z,3.2222222222222854
2023-03-19T03:30:32.580Z,3.2222222222222854
2023-03-19T03:31:32.385Z,3.2222222222222854
2023-03-19T03:32:31.843Z,3.2222222222222854
2023-03-19T03:33:32.269Z,3.2222222222222854
2023-03-19T03:34:32.336Z,3.2222222222222854
2023-03-19T03:35:32.386Z,3.2222222222222854
2023-03-19T03:36:31.922Z,3.2222222222222854
2023-03-19T03:37:32.341Z,3.2222222222222854
2023-03-19T03:38:32.229Z,3.1111111111111427
2023-03-19T03:39:32.326Z,3.1111111111111427
2023-03-19T03:40:32.472Z,3.1111111111111427
2023-03-19T03:41:32.343Z,3.1111111111111427
2023-03-19T03:42:32.224Z,3.1111111111111427
2023-03-19T03:43:32.271Z,3.1111111111111427
2023-03-19T03:44:31.904Z,3.1111111111111427
2023-03-19T03:45:32.351Z,3.1111111111111427
2023-03-19T03:46:32.355Z,3.1111111111111427
2023-03-19T03:47:32.292Z,3.1111111111111427
2023-03-19T03:48:31.828Z,3.000000000000057
2023-03-19T03:49:32.277Z,3.1111111111111427
2023-03-19T03:50:32.605Z,3.1111111111111427
2023-03-19T03:51:32.329Z,3.1111111111111427
2023-03-19T03:52:31.796Z,3.1111111111111427
2023-03-19T03:53:32.240Z,3.1111111111111427
2023-03-19T03:54:32.212Z,3.1111111111111427
2023-03-19T03:55:32.265Z,3.1111111111111427
2023-03-19T03:56:31.853Z,3.1111111111111427
2023-03-19T03:57:32.338Z,3.1111111111111427
2023-03-19T03:58:32.237Z,3.1111111111111427
2023-03-19T03:59:32.304Z,3.1111111111111427
2023-03-19T04:00:32.194Z,3.1111111111111427
2023-03-19T04:01:32.239Z,3.1111111111111427
2023-03-19T04:02:32.250Z,3.1111111111111427
2023-03-19T04:03:32.290Z,3.1111111111111427
2023-03-19T04:04:31.801Z,3.1111111111111427
2023-03-19T04:05:32.235Z,3.1111111111111427
2023-03-19T04:06:32.234Z,3.1111111111111427
2023-03-19T04:07:32.289Z,3.1111111111111427
2023-03-19T04:08:31.793Z,3.1111111111111427
2023-03-19T04:09:32.266Z,3.1111111111111427
2023-03-19T04:10:32.446Z,3.1111111111111427
2023-03-19T04:11:32.249Z,3.1111111111111427
2023-03-19T04:12:31.762Z,3.1111111111111427
2023-03-19T04:13:32.239Z,3.1111111111111427
2023-03-19T04:14:32.241Z,3.1111111111111427
2023-03-19T04:15:32.268Z,3.1111111111111427
2023-03-19T04:16:31.745Z,3.1111111111111427
2023-03-19T04:17:32.258Z,3.1111111111111427
2023-03-19T04:18:32.229Z,3.1111111111111427
2023-03-19T04:19:32.251Z,3.1111111111111427
2023-03-19T04:20:32.221Z,3.1111111111111427
2023-03-19T04:21:32.250Z,3.1111111111111427
2023-03-19T04:22:32.211Z,3.1111111111111427
2023-03-19T04:23:32.254Z,3.1111111111111427
2023-03-19T04:24:31.773Z,3.1111111111111427
2023-03-19T04:25:32.237Z,3.1111111111111427
2023-03-19T04:26:32.225Z,3.1111111111111427
2023-03-19T04:27:32.243Z,3.1111111111111427
2023-03-19T04:28:31.773Z,3.1111111111111427
2023-03-19T04:29:32.236Z,3.1111111111111427
2023-03-19T04:30:35.086Z,3.1111111111111427
2023-03-19T04:31:32.263Z,3.1111111111111427
2023-03-19T04:32:31.764Z,3.1111111111111427
2023-03-19T04:33:32.294Z,3.1111111111111427
2023-03-19T04:34:32.223Z,3.000000000000057
2023-03-19T04:35:32.272Z,3.000000000000057
2023-03-19T04:36:31.770Z,3.000000000000057
2023-03-19T04:37:32.233Z,3.1111111111111427
2023-03-19T04:38:32.228Z,3.1111111111111427
2023-03-19T04:39:32.366Z,3.1111111111111427
2023-03-19T04:40:31.949Z,3.1111111111111427
2023-03-19T04:41:32.228Z,3.1111111111111427
2023-03-19T04:42:32.225Z,3.1111111111111427
2023-03-19T04:43:32.227Z,3.1111111111111427
2023-03-19T04:44:31.734Z,3.1111111111111427
2023-03-19T04:45:32.244Z,3.1111111111111427
2023-03-19T04:46:32.264Z,3.000000000000057
2023-03-19T04:47:32.276Z,3.000000000000057
2023-03-19T04:48:31.712Z,3.000000000000057
2023-03-19T04:49:32.213Z,3.000000000000057
2023-03-19T04:50:32.497Z,2.888888888888914
2023-03-19T04:51:32.239Z,2.888888888888914
2023-03-19T04:52:31.775Z,2.888888888888914
2023-03-19T04:53:32.274Z,2.888888888888914
2023-03-19T04:54:32.237Z,2.888888888888914
2023-03-19T04:55:32.209Z,2.888888888888914
2023-03-19T04:56:31.788Z,2.888888888888914
2023-03-19T04:57:32.207Z,2.888888888888914
2023-03-19T04:58:32.216Z,2.888888888888914
2023-03-19T04:59:32.195Z,2.7777777777778283
2023-03-19T05:00:32.105Z,2.7777777777778283
2023-03-19T05:01:32.240Z,2.7777777777778283
2023-03-19T05:02:32.248Z,2.7777777777778283
2023-03-19T05:03:32.304Z,2.7222222222222285
2023-03-19T05:04:31.758Z,2.7222222222222285
2023-03-19T05:05:32.293Z,2.7222222222222285
2023-03-19T05:06:32.238Z,2.7222222222222285
2023-03-19T05:07:32.268Z,2.7222222222222285
2023-03-19T05:08:31.795Z,2.7222222222222285
2023-03-19T05:09:32.201Z,2.7222222222222285
2023-03-19T05:10:32.401Z,2.7222222222222285
2023-03-19T05:11:32.215Z,2.7222222222222285
2023-03-19T05:12:31.789Z,2.7222222222222285
2023-03-19T05:13:32.209Z,2.7222222222222285
2023-03-19T05:14:32.321Z,2.7222222222222285
2023-03-19T05:15:32.233Z,2.7222222222222285
2023-03-19T05:16:31.750Z,2.7222222222222285
2023-03-19T05:17:32.225Z,2.7222222222222285
2023-03-19T05:18:32.233Z,2.7222222222222285
2023-03-19T05:19:32.195Z,2.7222222222222285
2023-03-19T05:20:31.936Z,2.7222222222222285
2023-03-19T05:21:32.212Z,2.7222222222222285
2023-03-19T05:22:32.233Z,2.7222222222222285
2023-03-19T05:23:32.206Z,2.7777777777778283
2023-03-19T05:24:31.792Z,2.7777777777778283
2023-03-19T05:25:32.198Z,2.7777777777778283
2023-03-19T05:26:32.240Z,2.7777777777778283
2023-03-19T05:27:32.282Z,2.7777777777778283
2023-03-19T05:28:31.764Z,2.7777777777778283
2023-03-19T05:29:32.226Z,2.7777777777778283
2023-03-19T05:30:32.660Z,2.7777777777778283
2023-03-19T05:31:32.235Z,2.7777777777778283
2023-03-19T05:32:31.805Z,2.7777777777778283
2023-03-19T05:33:32.189Z,2.7777777777778283
2023-03-19T05:34:32.244Z,2.7777777777778283
2023-03-19T05:35:32.275Z,2.7777777777778283
2023-03-19T05:36:31.738Z,2.7777777777778283
2023-03-19T05:37:32.193Z,2.7777777777778283
2023-03-19T05:38:32.222Z,2.7777777777778283
2023-03-19T05:39:32.201Z,2.7777777777778283
2023-03-19T05:40:31.948Z,2.7777777777778283
2023-03-19T05:41:32.215Z,2.7777777777778283
2023-03-19T05:42:32.212Z,2.7777777777778283
2023-03-19T05:43:32.209Z,2.7777777777778283
2023-03-19T05:44:31.755Z,2.888888888888914
2023-03-19T05:45:32.202Z,2.888888888888914
2023-03-19T05:46:32.291Z,2.888888888888914
2023-03-19T05:47:32.195Z,2.888888888888914
2023-03-19T05:48:31.719Z,2.888888888888914
2023-03-19T05:49:32.193Z,2.888888888888914
2023-03-19T05:50:32.486Z,2.888888888888914
2023-03-19T05:51:32.206Z,2.888888888888914
2023-03-19T05:52:31.737Z,2.888888888888914
2023-03-19T05:53:32.226Z,2.888888888888914
2023-03-19T05:54:32.239Z,2.888888888888914
2023-03-19T05:55:32.261Z,2.888888888888914
2023-03-19T05:56:31.738Z,2.888888888888914
2023-03-19T05:57:32.216Z,2.888888888888914
2023-03-19T05:58:32.201Z,2.888888888888914
2023-03-19T05:59:32.204Z,2.888888888888914
2023-03-19T06:00:31.920Z,2.888888888888914
2023-03-19T06:01:32.278Z,2.888888888888914
2023-03-19T06:02:32.378Z,2.888888888888914
2023-03-19T06:03:32.277Z,3.000000000000057
2023-03-19T06:04:31.725Z,3.000000000000057
2023-03-19T06:05:32.237Z,3.000000000000057
2023-03-19T06:06:32.237Z,2.888888888888914
2023-03-19T06:07:32.197Z,2.888888888888914
2023-03-19T06:08:31.697Z,2.888888888888914
2023-03-19T06:09:32.200Z,2.888888888888914
2023-03-19T06:10:32.519Z,2.888888888888914
2023-03-19T06:11:32.212Z,2.888888888888914
2023-03-19T06:12:31.735Z,2.888888888888914
2023-03-19T06:13:32.212Z,2.888888888888914
2023-03-19T06:14:32.213Z,2.888888888888914
2023-03-19T06:15:32.532Z,2.888888888888914
2023-03-19T06:16:31.752Z,2.888888888888914
2023-03-19T06:17:32.207Z,2.888888888888914
2023-03-19T06:18:32.218Z,2.888888888888914
2023-03-19T06:19:32.184Z,3.000000000000057
2023-03-19T06:20:32.005Z,3.000000000000057
2023-03-19T06:21:32.220Z,3.000000000000057
2023-03-19T06:22:32.240Z,3.000000000000057
2023-03-19T06:23:32.228Z,3.000000000000057
2023-03-19T06:24:31.711Z,3.000000000000057
2023-03-19T06:25:32.220Z,3.000000000000057
2023-03-19T06:26:32.214Z,3.000000000000057
2023-03-19T06:27:32.264Z,3.000000000000057
2023-03-19T06:28:31.738Z,3.000000000000057
2023-03-19T06:29:32.182Z,3.000000000000057
2023-03-19T06:30:32.324Z,3.1111111111111427
2023-03-19T06:31:32.234Z,3.1111111111111427
2023-03-19T06:32:31.820Z,3.1111111111111427
2023-03-19T06:33:32.298Z,3.1111111111111427
2023-03-19T06:34:32.265Z,3.1111111111111427
2023-03-19T06:35:32.264Z,3.1111111111111427
2023-03-19T06:36:31.766Z,3.1111111111111427
2023-03-19T06:37:32.200Z,3.1111111111111427
2023-03-19T06:38:32.227Z,3.1111111111111427
2023-03-19T06:39:32.218Z,3.1111111111111427
2023-03-19T06:40:31.754Z,3.1111111111111427
2023-03-19T06:41:32.195Z,3.1111111111111427
2023-03-19T06:42:32.313Z,3.1111111111111427
2023-03-19T06:43:32.222Z,3.1111111111111427
2023-03-19T06:44:31.718Z,3.1111111111111427
2023-03-19T06:45:32.257Z,3.1111111111111427
2023-03-19T06:46:32.253Z,3.2222222222222854
2023-03-19T06:47:32.262Z,3.2222222222222854
2023-03-19T06:48:31.711Z,3.2222222222222854
2023-03-19T06:49:32.186Z,3.2222222222222854
2023-03-19T06:50:32.479Z,3.2222222222222854
2023-03-19T06:51:32.245Z,3.2222222222222854
2023-03-19T06:52:31.713Z,3.2222222222222854
2023-03-19T06:53:32.214Z,3.2222222222222854
2023-03-19T06:54:32.200Z,3.2777777777778283
2023-03-19T06:55:32.237Z,3.2777777777778283
2023-03-19T06:56:31.726Z,3.2222222222222854
2023-03-19T06:57:32.218Z,3.2222222222222854
2023-03-19T06:58:32.213Z,3.2222222222222854
2023-03-19T06:59:32.222Z,3.2222222222222854
2023-03-19T07:00:31.882Z,3.2222222222222854
2023-03-19T07:01:32.206Z,3.2777777777778283
2023-03-19T07:02:32.240Z,3.2777777777778283
2023-03-19T07:03:32.226Z,3.2777777777778283
2023-03-19T07:04:31.832Z,3.2777777777778283
2023-03-19T07:05:32.312Z,3.2777777777778283
2023-03-19T07:06:32.211Z,3.2777777777778283
2023-03-19T07:07:32.232Z,3.2777777777778283
2023-03-19T07:08:31.736Z,3.2777777777778283
2023-03-19T07:09:32.207Z,3.2777777777778283
2023-03-19T07:10:32.371Z,3.2777777777778283
2023-03-19T07:11:35.241Z,3.388888888888971
2023-03-19T07:12:31.658Z,3.2777777777778283
2023-03-19T07:13:32.181Z,3.2777777777778283
2023-03-19T07:14:32.226Z,3.2777777777778283
2023-03-19T07:15:32.213Z,3.2777777777778283
2023-03-19T07:16:31.724Z,3.2777777777778283
2023-03-19T07:17:32.215Z,3.2777777777778283
2023-03-19T07:18:32.194Z,3.2777777777778283
2023-03-19T07:19:32.209Z,3.2777777777778283
2023-03-19T07:20:31.804Z,3.2777777777778283
2023-03-19T07:21:32.196Z,3.2777777777778283
2023-03-19T07:22:32.214Z,3.2777777777778283
2023-03-19T07:23:32.225Z,3.2777777777778283
2023-03-19T07:24:31.655Z,3.2777777777778283
2023-03-19T07:25:32.350Z,3.2777777777778283
2023-03-19T07:26:32.218Z,3.2777777777778283
2023-03-19T07:27:32.219Z,3.2777777777778283
2023-03-19T07:28:31.626Z,3.2777777777778283
2023-03-19T07:29:32.212Z,3.2777777777778283
2023-03-19T07:30:32.419Z,3.2777777777778283
2023-03-19T07:31:32.281Z,3.2777777777778283
2023-03-19T07:32:31.741Z,3.2777777777778283
2023-03-19T07:33:32.185Z,3.388888888888971
2023-03-19T07:34:32.206Z,3.388888888888971
2023-03-19T07:35:32.320Z,3.2777777777778283
2023-03-19T07:36:31.670Z,3.2777777777778283
2023-03-19T07:37:32.200Z,3.2777777777778283
2023-03-19T07:38:32.204Z,3.2777777777778283
2023-03-19T07:39:32.214Z,3.2777777777778283
2023-03-19T07:40:31.837Z,3.2777777777778283
2023-03-19T07:41:32.206Z,3.2777777777778283
2023-03-19T07:42:32.310Z,3.2777777777778283
2023-03-19T07:43:32.222Z,3.2222222222222854
2023-03-19T07:44:31.663Z,3.2222222222222854
2023-03-19T07:45:32.261Z,3.2777777777778283
2023-03-19T07:46:32.200Z,3.2777777777778283
2023-03-19T07:47:32.261Z,3.388888888888971
2023-03-19T07:48:31.824Z,3.388888888888971
2023-03-19T07:49:32.172Z,3.388888888888971
2023-03-19T07:50:32.419Z,3.500000000000057
2023-03-19T07:51:32.226Z,3.500000000000057
2023-03-19T07:52:31.651Z,3.500000000000057
2023-03-19T07:53:32.207Z,3.500000000000057
2023-03-19T07:54:32.210Z,3.500000000000057
2023-03-19T07:55:32.198Z,3.500000000000057
2023-03-19T07:56:31.629Z,3.500000000000057
2023-03-19T07:57:32.224Z,3.6111111111111427
2023-03-19T07:58:32.186Z,3.6111111111111427
2023-03-19T07:59:32.225Z,3.6111111111111427
2023-03-19T08:00:31.971Z,3.6111111111111427
2023-03-19T08:01:32.208Z,3.6111111111111427
2023-03-19T08:02:32.267Z,3.6111111111111427
2023-03-19T08:03:32.313Z,3.6111111111111427
2023-03-19T08:04:31.716Z,3.6111111111111427
2023-03-19T08:05:32.198Z,3.6111111111111427
2023-03-19T08:06:32.212Z,3.6111111111111427
2023-03-19T08:07:32.192Z,3.6111111111111427
2023-03-19T08:08:31.629Z,3.6111111111111427
2023-03-19T08:09:32.207Z,3.6111111111111427
2023-03-19T08:10:33.503Z,3.6111111111111427
2023-03-19T08:11:32.176Z,3.6111111111111427
2023-03-19T08:12:31.656Z,3.6111111111111427
2023-03-19T08:13:32.172Z,3.6111111111111427
2023-03-19T08:14:32.193Z,3.6111111111111427
2023-03-19T08:15:32.230Z,3.6111111111111427
2023-03-19T08:16:31.706Z,3.6111111111111427
2023-03-19T08:17:32.193Z,3.6111111111111427
2023-03-19T08:18:32.223Z,3.6111111111111427
2023-03-19T08:19:32.166Z,3.6111111111111427
2023-03-19T08:20:31.919Z,3.6111111111111427
2023-03-19T08:21:32.180Z,3.6111111111111427
2023-03-19T08:22:32.195Z,3.6111111111111427
2023-03-19T08:23:32.189Z,3.500000000000057
2023-03-19T08:24:31.629Z,3.500000000000057
2023-03-19T08:25:32.175Z,3.6111111111111427
2023-03-19T08:26:32.193Z,3.6111111111111427
2023-03-19T08:27:32.179Z,3.6111111111111427
2023-03-19T08:28:31.620Z,3.6111111111111427
2023-03-19T08:29:32.178Z,3.6111111111111427
2023-03-19T08:30:32.927Z,3.6111111111111427
2023-03-19T08:31:32.268Z,3.7222222222222854
2023-03-19T08:32:31.675Z,3.7222222222222854
2023-03-19T08:33:32.181Z,3.6111111111111427
2023-03-19T08:34:32.194Z,3.6111111111111427
2023-03-19T08:35:32.281Z,3.7222222222222854
2023-03-19T08:36:31.615Z,3.7222222222222854
2023-03-19T08:37:32.209Z,3.7777777777778283
2023-03-19T08:38:32.200Z,3.7777777777778283
2023-03-19T08:39:32.189Z,3.7777777777778283
2023-03-19T08:40:31.589Z,3.888888888888914
2023-03-19T08:41:32.212Z,3.888888888888914
2023-03-19T08:42:32.203Z,3.888888888888914
2023-03-19T08:43:32.323Z,3.888888888888914
2023-03-19T08:44:31.638Z,3.888888888888914
2023-03-19T08:45:32.207Z,3.888888888888914
2023-03-19T08:46:32.287Z,3.888888888888914
2023-03-19T08:47:32.168Z,3.888888888888914
2023-03-19T08:48:31.589Z,3.888888888888914
2023-03-19T08:49:32.198Z,3.888888888888914
2023-03-19T08:50:32.432Z,3.888888888888914
2023-03-19T08:51:32.223Z,3.888888888888914
2023-03-19T08:52:31.594Z,3.888888888888914
2023-03-19T08:53:32.211Z,3.888888888888914
2023-03-19T08:54:32.180Z,3.888888888888914
2023-03-19T08:55:32.211Z,3.888888888888914
2023-03-19T08:56:31.574Z,3.888888888888914
2023-03-19T08:57:32.265Z,3.888888888888914
2023-03-19T08:58:32.185Z,4.000000000000057
2023-03-19T08:59:34.223Z,4.000000000000057
2023-03-19T09:00:31.637Z,4.000000000000057
2023-03-19T09:01:32.240Z,4.000000000000057
2023-03-19T09:02:32.241Z,4.000000000000057
2023-03-19T09:03:32.195Z,4.000000000000057
2023-03-19T09:04:31.693Z,4.000000000000057
2023-03-19T09:05:32.212Z,4.111111111111143
2023-03-19T09:06:32.272Z,4.111111111111143
2023-03-19T09:07:32.224Z,4.111111111111143
2023-03-19T09:08:31.560Z,4.111111111111143